sensor_id;sensor_type;location;lat;lon;timestamp;pressure;altitude;pressure_sealevel;temperature;humidity
49040;BME280;36811;49.732;13.402;2022-11-12T00:00:38;99515.94;;;4.71;96.30
49040;BME280;36811;49.732;13.402;2022-11-12T00:03:04;99517.88;;;4.77;95.80
49040;BME280;36811;49.732;13.402;2022-11-12T00:05:31;99516.38;;;4.82;95.98
49040;BME280;36811;49.732;13.402;2022-11-12T00:07:56;99510.09;;;4.83;95.39
49040;BME280;36811;49.732;13.402;2022-11-12T00:10:22;99517.53;;;4.80;95.86
49040;BME280;36811;49.732;13.402;2022-11-12T00:12:48;99514.28;;;4.78;96.27
49040;BME280;36811;49.732;13.402;2022-11-12T00:15:14;99518.00;;;4.83;96.21
49040;BME280;36811;49.732;13.402;2022-11-12T00:17:40;99524.56;;;4.87;95.78
49040;BME280;36811;49.732;13.402;2022-11-12T00:20:06;99525.84;;;4.91;96.17
49040;BME280;36811;49.732;13.402;2022-11-12T00:22:33;99521.22;;;4.93;96.20
49040;BME280;36811;49.732;13.402;2022-11-12T00:24:58;99525.16;;;4.97;96.42
49040;BME280;36811;49.732;13.402;2022-11-12T00:27:24;99523.97;;;5.00;96.15
49040;BME280;36811;49.732;13.402;2022-11-12T00:29:50;99513.88;;;5.03;96.26
49040;BME280;36811;49.732;13.402;2022-11-12T00:32:16;99521.34;;;5.00;96.15
49040;BME280;36811;49.732;13.402;2022-11-12T00:34:41;99522.22;;;4.92;96.30
49040;BME280;36811;49.732;13.402;2022-11-12T00:37:07;99531.59;;;4.95;96.93
49040;BME280;36811;49.732;13.402;2022-11-12T00:39:33;99530.44;;;4.97;96.25
49040;BME280;36811;49.732;13.402;2022-11-12T00:41:58;99522.22;;;4.92;95.60
49040;BME280;36811;49.732;13.402;2022-11-12T00:44:24;99523.56;;;4.88;95.96
49040;BME280;36811;49.732;13.402;2022-11-12T00:46:49;99516.44;;;4.74;95.55
49040;BME280;36811;49.732;13.402;2022-11-12T00:49:15;99516.13;;;4.69;96.01
49040;BME280;36811;49.732;13.402;2022-11-12T00:51:41;99512.38;;;4.64;95.99
49040;BME280;36811;49.732;13.402;2022-11-12T00:54:07;99512.25;;;4.57;96.24
49040;BME280;36811;49.732;13.402;2022-11-12T00:56:33;99507.03;;;4.49;96.26
49040;BME280;36811;49.732;13.402;2022-11-12T00:58:59;99507.53;;;4.53;96.20
49040;BME280;36811;49.732;13.402;2022-11-12T01:01:25;99506.41;;;4.47;96.16
49040;BME280;36811;49.732;13.402;2022-11-12T01:03:52;99507.56;;;4.44;96.26
49040;BME280;36811;49.732;13.402;2022-11-12T01:06:21;99503.81;;;4.39;96.34
49040;BME280;36811;49.732;13.402;2022-11-12T01:08:48;99501.53;;;4.36;96.05
49040;BME280;36811;49.732;13.402;2022-11-12T01:11:21;99496.97;;;4.30;96.30
49040;BME280;36811;49.732;13.402;2022-11-12T01:14:03;99511.75;;;4.31;96.20
49040;BME280;36811;49.732;13.402;2022-11-12T01:16:33;99500.28;;;4.24;96.06
49040;BME280;36811;49.732;13.402;2022-11-12T01:19:03;99508.81;;;4.26;96.10
49040;BME280;36811;49.732;13.402;2022-11-12T01:21:31;99508.00;;;4.25;95.97
49040;BME280;36811;49.732;13.402;2022-11-12T01:23:59;99506.19;;;4.26;96.45
49040;BME280;36811;49.732;13.402;2022-11-12T01:26:26;99511.63;;;4.24;95.91
49040;BME280;36811;49.732;13.402;2022-11-12T01:28:55;99510.50;;;4.19;95.85
49040;BME280;36811;49.732;13.402;2022-11-12T01:31:32;99505.25;;;4.19;95.80
49040;BME280;36811;49.732;13.402;2022-11-12T01:34:01;99512.66;;;4.15;95.32
49040;BME280;36811;49.732;13.402;2022-11-12T01:36:32;99513.34;;;4.09;95.72
49040;BME280;36811;49.732;13.402;2022-11-12T01:38:58;99513.88;;;4.05;95.63
49040;BME280;36811;49.732;13.402;2022-11-12T01:41:44;99507.78;;;4.04;96.04
49040;BME280;36811;49.732;13.402;2022-11-12T01:47:17;99513.91;;;3.97;95.94
49040;BME280;36811;49.732;13.402;2022-11-12T01:50:07;99508.97;;;3.94;95.97
49040;BME280;36811;49.732;13.402;2022-11-12T01:52:43;99506.16;;;3.95;95.72
49040;BME280;36811;49.732;13.402;2022-11-12T01:55:13;99510.16;;;3.91;95.37
49040;BME280;36811;49.732;13.402;2022-11-12T01:57:43;99505.22;;;3.88;95.53
49040;BME280;36811;49.732;13.402;2022-11-12T02:00:12;99513.28;;;3.87;95.79
49040;BME280;36811;49.732;13.402;2022-11-12T02:02:39;99509.19;;;3.84;95.57
49040;BME280;36811;49.732;13.402;2022-11-12T02:05:08;99515.63;;;3.81;95.77
49040;BME280;36811;49.732;13.402;2022-11-12T02:07:36;99513.31;;;3.78;96.38
49040;BME280;36811;49.732;13.402;2022-11-12T02:10:05;99507.88;;;3.80;96.12
49040;BME280;36811;49.732;13.402;2022-11-12T02:12:32;99496.88;;;3.76;96.17
49040;BME280;36811;49.732;13.402;2022-11-12T02:15:16;99499.50;;;3.76;96.16
49040;BME280;36811;49.732;13.402;2022-11-12T02:17:41;99502.28;;;3.75;96.57
49040;BME280;36811;49.732;13.402;2022-11-12T02:20:11;99502.13;;;3.76;96.17
49040;BME280;36811;49.732;13.402;2022-11-12T02:22:38;99502.94;;;3.77;96.54
49040;BME280;36811;49.732;13.402;2022-11-12T02:25:04;99491.63;;;3.76;96.24
49040;BME280;36811;49.732;13.402;2022-11-12T02:27:30;99498.16;;;3.80;96.24
49040;BME280;36811;49.732;13.402;2022-11-12T02:29:55;99494.25;;;3.76;96.35
49040;BME280;36811;49.732;13.402;2022-11-12T02:32:21;99497.72;;;3.69;96.52
49040;BME280;36811;49.732;13.402;2022-11-12T02:34:46;99496.41;;;3.65;96.93
49040;BME280;36811;49.732;13.402;2022-11-12T02:37:12;99495.09;;;3.69;96.84
49040;BME280;36811;49.732;13.402;2022-11-12T02:39:39;99491.94;;;3.73;96.49
49040;BME280;36811;49.732;13.402;2022-11-12T02:42:04;99499.00;;;3.73;96.50
49040;BME280;36811;49.732;13.402;2022-11-12T02:44:30;99500.50;;;3.75;96.43
49040;BME280;36811;49.732;13.402;2022-11-12T02:46:56;99496.19;;;3.74;96.05
49040;BME280;36811;49.732;13.402;2022-11-12T02:49:22;99508.38;;;3.75;96.24
49040;BME280;36811;49.732;13.402;2022-11-12T02:51:47;99510.84;;;3.77;96.35
49040;BME280;36811;49.732;13.402;2022-11-12T02:54:13;99502.13;;;3.76;96.04
49040;BME280;36811;49.732;13.402;2022-11-12T02:56:38;99496.38;;;3.73;95.69
49040;BME280;36811;49.732;13.402;2022-11-12T02:59:04;99503.63;;;3.71;95.74
49040;BME280;36811;49.732;13.402;2022-11-12T03:01:29;99512.69;;;3.68;95.80
49040;BME280;36811;49.732;13.402;2022-11-12T03:03:55;99506.78;;;3.66;95.93
49040;BME280;36811;49.732;13.402;2022-11-12T03:06:21;99503.97;;;3.68;95.97
49040;BME280;36811;49.732;13.402;2022-11-12T03:08:46;99500.66;;;3.74;96.04
49040;BME280;36811;49.732;13.402;2022-11-12T03:11:14;99510.69;;;3.78;95.80
49040;BME280;36811;49.732;13.402;2022-11-12T03:13:40;99508.69;;;3.80;95.60
49040;BME280;36811;49.732;13.402;2022-11-12T03:16:06;99501.78;;;3.79;95.69
49040;BME280;36811;49.732;13.402;2022-11-12T03:18:32;99503.91;;;3.84;95.65
49040;BME280;36811;49.732;13.402;2022-11-12T03:20:57;99499.97;;;3.80;95.31
49040;BME280;36811;49.732;13.402;2022-11-12T03:23:25;99500.78;;;3.80;95.89
49040;BME280;36811;49.732;13.402;2022-11-12T03:25:50;99493.84;;;3.88;95.85
49040;BME280;36811;49.732;13.402;2022-11-12T03:28:16;99499.41;;;4.01;95.92
49040;BME280;36811;49.732;13.402;2022-11-12T03:30:42;99495.91;;;4.08;95.36
49040;BME280;36811;49.732;13.402;2022-11-12T03:33:11;99491.47;;;4.09;95.26
49040;BME280;36811;49.732;13.402;2022-11-12T03:35:38;99497.56;;;4.09;95.19
49040;BME280;36811;49.732;13.402;2022-11-12T03:38:05;99492.09;;;4.11;95.60
49040;BME280;36811;49.732;13.402;2022-11-12T03:40:31;99499.66;;;4.14;95.31
49040;BME280;36811;49.732;13.402;2022-11-12T03:42:57;99494.88;;;4.17;95.54
49040;BME280;36811;49.732;13.402;2022-11-12T03:45:25;99485.81;;;4.20;95.37
49040;BME280;36811;49.732;13.402;2022-11-12T03:47:53;99499.00;;;4.20;95.31
49040;BME280;36811;49.732;13.402;2022-11-12T03:50:21;99491.56;;;4.23;95.17
49040;BME280;36811;49.732;13.402;2022-11-12T03:52:50;99488.09;;;4.23;95.53
49040;BME280;36811;49.732;13.402;2022-11-12T03:55:18;99481.34;;;4.20;95.21
49040;BME280;36811;49.732;13.402;2022-11-12T03:57:47;99484.66;;;4.22;95.63
49040;BME280;36811;49.732;13.402;2022-11-12T04:00:14;99485.44;;;4.23;95.34
49040;BME280;36811;49.732;13.402;2022-11-12T04:02:40;99481.00;;;4.23;95.33
49040;BME280;36811;49.732;13.402;2022-11-12T04:05:06;99487.59;;;4.27;95.15
49040;BME280;36811;49.732;13.402;2022-11-12T04:08:00;99476.22;;;4.27;95.04
49040;BME280;36811;49.732;13.402;2022-11-12T04:10:45;99473.25;;;4.30;95.03
49040;BME280;36811;49.732;13.402;2022-11-12T04:13:10;99467.16;;;4.29;94.82
49040;BME280;36811;49.732;13.402;2022-11-12T04:15:56;99477.81;;;4.36;95.08
49040;BME280;36811;49.732;13.402;2022-11-12T04:18:40;99472.25;;;4.31;94.81
49040;BME280;36811;49.732;13.402;2022-11-12T04:21:31;99480.94;;;4.39;94.80
49040;BME280;36811;49.732;13.402;2022-11-12T04:24:33;99480.63;;;4.34;94.32
49040;BME280;36811;49.732;13.402;2022-11-12T04:27:21;99491.81;;;4.36;94.59
49040;BME280;36811;49.732;13.402;2022-11-12T04:29:48;99493.09;;;4.40;94.41
49040;BME280;36811;49.732;13.402;2022-11-12T04:32:34;99496.25;;;4.36;94.79
49040;BME280;36811;49.732;13.402;2022-11-12T04:35:00;99490.97;;;4.36;94.72
49040;BME280;36811;49.732;13.402;2022-11-12T04:37:28;99498.78;;;4.29;94.38
49040;BME280;36811;49.732;13.402;2022-11-12T04:39:54;99492.03;;;4.27;94.83
49040;BME280;36811;49.732;13.402;2022-11-12T04:42:20;99492.91;;;4.19;94.44
49040;BME280;36811;49.732;13.402;2022-11-12T04:45:09;99488.31;;;4.13;94.91
49040;BME280;36811;49.732;13.402;2022-11-12T04:47:41;99489.81;;;4.08;95.16
49040;BME280;36811;49.732;13.402;2022-11-12T04:50:16;99485.56;;;4.07;95.18
49040;BME280;36811;49.732;13.402;2022-11-12T04:52:42;99486.75;;;3.96;94.26
49040;BME280;36811;49.732;13.402;2022-11-12T04:55:09;99481.97;;;4.00;95.34
49040;BME280;36811;49.732;13.402;2022-11-12T04:57:36;99472.25;;;4.00;95.38
49040;BME280;36811;49.732;13.402;2022-11-12T05:00:03;99471.44;;;4.00;95.03
49040;BME280;36811;49.732;13.402;2022-11-12T05:02:29;99468.16;;;3.98;95.43
49040;BME280;36811;49.732;13.402;2022-11-12T05:04:55;99470.75;;;4.06;95.29
49040;BME280;36811;49.732;13.402;2022-11-12T05:07:41;99476.72;;;4.00;94.60
49040;BME280;36811;49.732;13.402;2022-11-12T05:10:07;99466.34;;;3.98;95.27
49040;BME280;36811;49.732;13.402;2022-11-12T05:12:34;99467.66;;;4.02;94.79
49040;BME280;36811;49.732;13.402;2022-11-12T05:15:00;99476.09;;;3.90;94.09
49040;BME280;36811;49.732;13.402;2022-11-12T05:17:27;99463.25;;;3.95;94.71
49040;BME280;36811;49.732;13.402;2022-11-12T05:19:53;99469.00;;;3.90;94.40
49040;BME280;36811;49.732;13.402;2022-11-12T05:22:18;99471.72;;;3.74;93.63
49040;BME280;36811;49.732;13.402;2022-11-12T05:24:44;99480.84;;;3.47;94.66
49040;BME280;36811;49.732;13.402;2022-11-12T05:27:17;99475.31;;;3.18;95.22
49040;BME280;36811;49.732;13.402;2022-11-12T05:29:43;99478.47;;;3.05;96.57
49040;BME280;36811;49.732;13.402;2022-11-12T05:32:12;99482.19;;;3.19;96.94
49040;BME280;36811;49.732;13.402;2022-11-12T05:34:39;99486.63;;;3.35;97.29
49040;BME280;36811;49.732;13.402;2022-11-12T05:37:06;99473.47;;;3.43;96.42
49040;BME280;36811;49.732;13.402;2022-11-12T05:39:32;99481.66;;;3.48;96.54
49040;BME280;36811;49.732;13.402;2022-11-12T05:41:58;99486.06;;;3.55;95.88
49040;BME280;36811;49.732;13.402;2022-11-12T05:44:23;99487.56;;;3.58;95.64
49040;BME280;36811;49.732;13.402;2022-11-12T05:46:49;99487.88;;;3.55;95.57
49040;BME280;36811;49.732;13.402;2022-11-12T05:49:16;99488.72;;;3.55;95.48
49040;BME280;36811;49.732;13.402;2022-11-12T05:51:42;99489.72;;;3.46;94.77
49040;BME280;36811;49.732;13.402;2022-11-12T05:54:09;99488.91;;;3.46;95.26
49040;BME280;36811;49.732;13.402;2022-11-12T05:56:35;99494.81;;;3.48;95.07
49040;BME280;36811;49.732;13.402;2022-11-12T05:59:03;99494.50;;;3.43;95.50
49040;BME280;36811;49.732;13.402;2022-11-12T06:01:29;99497.78;;;3.45;95.07
49040;BME280;36811;49.732;13.402;2022-11-12T06:03:55;99499.94;;;3.41;95.06
49040;BME280;36811;49.732;13.402;2022-11-12T06:06:21;99506.19;;;3.40;94.84
49040;BME280;36811;49.732;13.402;2022-11-12T06:08:48;99506.19;;;3.40;95.08
49040;BME280;36811;49.732;13.402;2022-11-12T06:11:13;99501.75;;;3.41;94.95
49040;BME280;36811;49.732;13.402;2022-11-12T06:13:39;99497.63;;;3.38;94.69
49040;BME280;36811;49.732;13.402;2022-11-12T06:16:06;99495.00;;;3.38;94.81
49040;BME280;36811;49.732;13.402;2022-11-12T06:18:31;99502.25;;;3.36;94.32
49040;BME280;36811;49.732;13.402;2022-11-12T06:21:02;99506.38;;;3.31;94.54
49040;BME280;36811;49.732;13.402;2022-11-12T06:23:50;99507.66;;;3.35;94.74
49040;BME280;36811;49.732;13.402;2022-11-12T06:26:17;99511.81;;;3.21;94.10
49040;BME280;36811;49.732;13.402;2022-11-12T06:28:43;99509.00;;;3.22;94.87
49040;BME280;36811;49.732;13.402;2022-11-12T06:31:09;99519.00;;;3.27;95.07
49040;BME280;36811;49.732;13.402;2022-11-12T06:33:34;99519.69;;;3.21;94.72
49040;BME280;36811;49.732;13.402;2022-11-12T06:36:01;99516.75;;;3.16;95.12
49040;BME280;36811;49.732;13.402;2022-11-12T06:38:29;99524.31;;;3.03;93.91
49040;BME280;36811;49.732;13.402;2022-11-12T06:40:55;99521.03;;;3.01;94.78
49040;BME280;36811;49.732;13.402;2022-11-12T06:43:21;99529.53;;;3.19;94.95
49040;BME280;36811;49.732;13.402;2022-11-12T06:45:47;99520.16;;;3.33;95.07
49040;BME280;36811;49.732;13.402;2022-11-12T06:48:12;99529.19;;;3.46;93.97
49040;BME280;36811;49.732;13.402;2022-11-12T06:50:38;99521.31;;;3.38;94.06
49040;BME280;36811;49.732;13.402;2022-11-12T06:53:03;99529.19;;;3.38;93.91
49040;BME280;36811;49.732;13.402;2022-11-12T06:55:29;99522.94;;;3.39;93.39
49040;BME280;36811;49.732;13.402;2022-11-12T06:57:54;99526.25;;;3.41;93.45
49040;BME280;36811;49.732;13.402;2022-11-12T07:00:20;99521.63;;;3.51;94.28
49040;BME280;36811;49.732;13.402;2022-11-12T07:02:46;99514.16;;;3.71;94.56
49040;BME280;36811;49.732;13.402;2022-11-12T07:05:11;99520.69;;;3.83;93.45
49040;BME280;36811;49.732;13.402;2022-11-12T07:07:37;99516.78;;;3.79;93.03
49040;BME280;36811;49.732;13.402;2022-11-12T07:10:03;99525.28;;;3.89;92.38
49040;BME280;36811;49.732;13.402;2022-11-12T07:12:28;99529.53;;;3.98;92.75
49040;BME280;36811;49.732;13.402;2022-11-12T07:14:54;99524.75;;;4.02;92.47
49040;BME280;36811;49.732;13.402;2022-11-12T07:17:21;99528.00;;;4.12;92.43
49040;BME280;36811;49.732;13.402;2022-11-12T07:19:46;99527.09;;;4.27;92.45
49040;BME280;36811;49.732;13.402;2022-11-12T07:22:12;99529.63;;;4.43;91.85
49040;BME280;36811;49.732;13.402;2022-11-12T07:24:37;99529.06;;;4.56;91.12
49040;BME280;36811;49.732;13.402;2022-11-12T07:27:03;99530.81;;;4.64;91.44
49040;BME280;36811;49.732;13.402;2022-11-12T07:29:28;99535.75;;;4.67;90.58
49040;BME280;36811;49.732;13.402;2022-11-12T07:31:54;99528.97;;;4.72;90.06
49040;BME280;36811;49.732;13.402;2022-11-12T07:34:19;99534.69;;;4.76;89.05
49040;BME280;36811;49.732;13.402;2022-11-12T07:36:45;99533.50;;;4.78;87.98
49040;BME280;36811;49.732;13.402;2022-11-12T07:39:10;99542.44;;;4.77;87.70
49040;BME280;36811;49.732;13.402;2022-11-12T07:41:37;99537.50;;;4.74;87.98
49040;BME280;36811;49.732;13.402;2022-11-12T07:44:03;99540.84;;;4.68;87.88
49040;BME280;36811;49.732;13.402;2022-11-12T07:46:28;99534.19;;;4.80;87.65
49040;BME280;36811;49.732;13.402;2022-11-12T07:48:54;99537.03;;;4.93;88.25
49040;BME280;36811;49.732;13.402;2022-11-12T07:51:22;99539.00;;;5.14;87.98
49040;BME280;36811;49.732;13.402;2022-11-12T07:53:49;99541.25;;;5.40;87.55
49040;BME280;36811;49.732;13.402;2022-11-12T07:56:17;99536.03;;;5.69;87.86
49040;BME280;36811;49.732;13.402;2022-11-12T07:58:43;99543.34;;;5.96;87.05
49040;BME280;36811;49.732;13.402;2022-11-12T08:01:21;99537.31;;;6.02;86.11
49040;BME280;36811;49.732;13.402;2022-11-12T08:03:48;99537.50;;;6.01;85.07
49040;BME280;36811;49.732;13.402;2022-11-12T08:06:15;99534.28;;;6.34;85.32
49040;BME280;36811;49.732;13.402;2022-11-12T08:08:40;99535.66;;;6.45;83.41
49040;BME280;36811;49.732;13.402;2022-11-12T08:11:06;99525.34;;;6.71;83.22
49040;BME280;36811;49.732;13.402;2022-11-12T08:13:33;99531.06;;;7.17;82.71
49040;BME280;36811;49.732;13.402;2022-11-12T08:15:59;99531.28;;;7.43;81.36
49040;BME280;36811;49.732;13.402;2022-11-12T08:18:26;99524.56;;;7.47;80.70
49040;BME280;36811;49.732;13.402;2022-11-12T08:20:52;99524.72;;;7.67;80.18
49040;BME280;36811;49.732;13.402;2022-11-12T08:23:23;99523.66;;;7.89;79.02
49040;BME280;36811;49.732;13.402;2022-11-12T08:25:48;99528.78;;;7.63;78.93
49040;BME280;36811;49.732;13.402;2022-11-12T08:28:14;99528.94;;;7.34;78.65
49040;BME280;36811;49.732;13.402;2022-11-12T08:31:07;99528.38;;;6.89;79.34
49040;BME280;36811;49.732;13.402;2022-11-12T08:33:33;99529.25;;;6.75;80.78
49040;BME280;36811;49.732;13.402;2022-11-12T08:36:07;99527.56;;;6.68;80.49
49040;BME280;36811;49.732;13.402;2022-11-12T08:38:33;99524.06;;;6.88;81.10
49040;BME280;36811;49.732;13.402;2022-11-12T08:41:04;99533.34;;;7.20;80.30
49040;BME280;36811;49.732;13.402;2022-11-12T08:43:30;99536.00;;;7.48;79.62
49040;BME280;36811;49.732;13.402;2022-11-12T08:45:59;99538.06;;;7.52;78.77
49040;BME280;36811;49.732;13.402;2022-11-12T08:48:27;99526.53;;;7.94;77.89
49040;BME280;36811;49.732;13.402;2022-11-12T08:50:54;99532.91;;;8.54;77.33
49040;BME280;36811;49.732;13.402;2022-11-12T08:53:21;99534.25;;;9.17;76.71
49040;BME280;36811;49.732;13.402;2022-11-12T08:55:47;99532.41;;;9.63;74.99
49040;BME280;36811;49.732;13.402;2022-11-12T08:58:12;99533.75;;;9.92;74.14
49040;BME280;36811;49.732;13.402;2022-11-12T09:00:40;99532.91;;;10.17;72.98
49040;BME280;36811;49.732;13.402;2022-11-12T09:03:12;99536.13;;;10.39;72.39
49040;BME280;36811;49.732;13.402;2022-11-12T09:05:39;99531.47;;;10.66;71.78
49040;BME280;36811;49.732;13.402;2022-11-12T09:08:08;99528.25;;;10.89;71.02
49040;BME280;36811;49.732;13.402;2022-11-12T09:10:35;99525.19;;;11.16;69.41
49040;BME280;36811;49.732;13.402;2022-11-12T09:13:01;99521.09;;;11.20;70.44
49040;BME280;36811;49.732;13.402;2022-11-12T09:15:28;99521.34;;;11.62;68.16
49040;BME280;36811;49.732;13.402;2022-11-12T09:17:59;99524.09;;;11.30;68.90
49040;BME280;36811;49.732;13.402;2022-11-12T09:20:26;99527.06;;;11.40;68.59
49040;BME280;36811;49.732;13.402;2022-11-12T09:22:58;99531.34;;;11.91;69.84
49040;BME280;36811;49.732;13.402;2022-11-12T09:25:24;99529.41;;;12.34;69.02
49040;BME280;36811;49.732;13.402;2022-11-12T09:27:49;99531.59;;;12.55;67.42
49040;BME280;36811;49.732;13.402;2022-11-12T09:30:15;99530.69;;;12.32;65.38
49040;BME280;36811;49.732;13.402;2022-11-12T09:32:41;99528.41;;;11.74;67.25
49040;BME280;36811;49.732;13.402;2022-11-12T09:35:07;99539.44;;;11.04;68.95
49040;BME280;36811;49.732;13.402;2022-11-12T09:37:32;99529.28;;;11.43;68.34
49040;BME280;36811;49.732;13.402;2022-11-12T09:40:01;99529.31;;;11.62;67.97
49040;BME280;36811;49.732;13.402;2022-11-12T09:42:27;99542.66;;;11.68;68.50
49040;BME280;36811;49.732;13.402;2022-11-12T09:45:02;99537.59;;;11.29;68.45
49040;BME280;36811;49.732;13.402;2022-11-12T09:47:35;99532.81;;;10.81;68.08
49040;BME280;36811;49.732;13.402;2022-11-12T09:52:40;99535.75;;;10.09;70.12
49040;BME280;36811;49.732;13.402;2022-11-12T09:55:24;99534.75;;;10.10;69.89
49040;BME280;36811;49.732;13.402;2022-11-12T09:57:53;99531.09;;;9.92;69.88
49040;BME280;36811;49.732;13.402;2022-11-12T10:00:19;99530.41;;;10.36;71.14
49040;BME280;36811;49.732;13.402;2022-11-12T10:05:57;99517.13;;;11.79;69.76
49040;BME280;36811;49.732;13.402;2022-11-12T10:11:09;99518.41;;;12.42;67.47
49040;BME280;36811;49.732;13.402;2022-11-12T10:14:12;99507.94;;;13.30;65.26
49040;BME280;36811;49.732;13.402;2022-11-12T10:22:39;99500.72;;;13.77;62.41
49040;BME280;36811;49.732;13.402;2022-11-12T10:25:17;99497.75;;;14.36;61.91
49040;BME280;36811;49.732;13.402;2022-11-12T10:27:44;99493.50;;;14.52;62.26
49040;BME280;36811;49.732;13.402;2022-11-12T10:30:18;99489.00;;;14.69;62.01
49040;BME280;36811;49.732;13.402;2022-11-12T10:32:45;99484.22;;;14.71;60.95
49040;BME280;36811;49.732;13.402;2022-11-12T10:35:15;99481.41;;;14.49;60.62
49040;BME280;36811;49.732;13.402;2022-11-12T10:38:01;99479.25;;;14.12;60.59
49040;BME280;36811;49.732;13.402;2022-11-12T10:40:31;99472.25;;;13.13;62.29
49040;BME280;36811;49.732;13.402;2022-11-12T10:43:05;99466.84;;;12.90;62.94
49040;BME280;36811;49.732;13.402;2022-11-12T10:45:35;99472.47;;;13.69;62.63
49040;BME280;36811;49.732;13.402;2022-11-12T10:48:01;99468.16;;;13.80;62.05
49040;BME280;36811;49.732;13.402;2022-11-12T10:50:40;99460.50;;;14.23;61.65
49040;BME280;36811;49.732;13.402;2022-11-12T10:53:10;99446.78;;;14.76;60.41
49040;BME280;36811;49.732;13.402;2022-11-12T10:55:53;99454.66;;;14.83;60.63
49040;BME280;36811;49.732;13.402;2022-11-12T10:58:19;99451.72;;;13.99;60.36
49040;BME280;36811;49.732;13.402;2022-11-12T11:01:03;99449.09;;;13.88;61.12
49040;BME280;36811;49.732;13.402;2022-11-12T11:03:44;99453.03;;;13.74;62.12
49040;BME280;36811;49.732;13.402;2022-11-12T11:08:47;99443.41;;;14.97;59.56
49040;BME280;36811;49.732;13.402;2022-11-12T11:13:50;99435.69;;;14.84;60.01
49040;BME280;36811;49.732;13.402;2022-11-12T11:16:22;99432.94;;;15.12;58.76
49040;BME280;36811;49.732;13.402;2022-11-12T11:27:09;99434.88;;;14.67;59.49
49040;BME280;36811;49.732;13.402;2022-11-12T11:35:23;99427.41;;;15.02;58.55
49040;BME280;36811;49.732;13.402;2022-11-12T11:57:34;99408.88;;;16.42;53.89
49040;BME280;36811;49.732;13.402;2022-11-12T12:08:11;99410.38;;;15.63;54.93
49040;BME280;36811;49.732;13.402;2022-11-12T12:16:37;99398.44;;;16.46;52.05
49040;BME280;36811;49.732;13.402;2022-11-12T12:19:06;99393.81;;;16.63;53.38
49040;BME280;36811;49.732;13.402;2022-11-12T12:21:36;99400.25;;;16.94;51.37
49040;BME280;36811;49.732;13.402;2022-11-12T12:26:39;99389.84;;;17.49;51.29
49040;BME280;36811;49.732;13.402;2022-11-12T12:29:13;99389.59;;;17.51;51.04
49040;BME280;36811;49.732;13.402;2022-11-12T12:31:46;99386.59;;;17.42;50.46
49040;BME280;36811;49.732;13.402;2022-11-12T12:34:28;99382.56;;;17.45;49.88
49040;BME280;36811;49.732;13.402;2022-11-12T12:37:04;99380.66;;;17.35;49.75
49040;BME280;36811;49.732;13.402;2022-11-12T12:42:25;99376.19;;;16.50;51.66
49040;BME280;36811;49.732;13.402;2022-11-12T12:44:57;99357.88;;;16.47;51.63
49040;BME280;36811;49.732;13.402;2022-11-12T12:47:25;99370.78;;;16.45;51.68
49040;BME280;36811;49.732;13.402;2022-11-12T12:49:53;99367.38;;;16.55;51.86
49040;BME280;36811;49.732;13.402;2022-11-12T12:52:19;99368.94;;;16.24;52.40
49040;BME280;36811;49.732;13.402;2022-11-12T13:02:59;99366.56;;;14.53;57.06
49040;BME280;36811;49.732;13.402;2022-11-12T13:05:30;99367.44;;;13.85;58.27
49040;BME280;36811;49.732;13.402;2022-11-12T13:08:10;99369.31;;;13.85;58.75
49040;BME280;36811;49.732;13.402;2022-11-12T13:18:09;99366.03;;;13.43;59.58
49040;BME280;36811;49.732;13.402;2022-11-12T13:20:40;99362.31;;;13.84;58.72
49040;BME280;36811;49.732;13.402;2022-11-12T13:23:11;99361.28;;;13.45;59.08
49040;BME280;36811;49.732;13.402;2022-11-12T13:29:24;99359.75;;;12.80;60.81
49040;BME280;36811;49.732;13.402;2022-11-12T13:48:35;99353.84;;;13.35;60.37
49040;BME280;36811;49.732;13.402;2022-11-12T13:51:16;99347.56;;;13.42;59.92
49040;BME280;36811;49.732;13.402;2022-11-12T13:53:43;99348.63;;;13.29;60.57
49040;BME280;36811;49.732;13.402;2022-11-12T13:56:11;99340.84;;;13.27;60.29
49040;BME280;36811;49.732;13.402;2022-11-12T13:58:37;99344.00;;;13.13;60.88
49040;BME280;36811;49.732;13.402;2022-11-12T14:01:10;99341.84;;;13.03;60.85
49040;BME280;36811;49.732;13.402;2022-11-12T14:03:48;99337.72;;;13.07;60.59
49040;BME280;36811;49.732;13.402;2022-11-12T14:06:27;99331.75;;;12.94;61.09
49040;BME280;36811;49.732;13.402;2022-11-12T14:12:24;99332.56;;;12.71;62.15
49040;BME280;36811;49.732;13.402;2022-11-12T14:20:37;99332.47;;;12.13;63.02
49040;BME280;36811;49.732;13.402;2022-11-12T14:23:17;99329.56;;;11.85;64.47
49040;BME280;36811;49.732;13.402;2022-11-12T14:25:53;99329.44;;;11.80;64.35
49040;BME280;36811;49.732;13.402;2022-11-12T14:28:34;99320.53;;;11.86;64.31
49040;BME280;36811;49.732;13.402;2022-11-12T14:31:02;99312.84;;;11.78;64.30
49040;BME280;36811;49.732;13.402;2022-11-12T14:33:30;99318.28;;;11.71;65.16
49040;BME280;36811;49.732;13.402;2022-11-12T14:36:10;99323.06;;;11.63;65.08
49040;BME280;36811;49.732;13.402;2022-11-12T14:38:48;99316.19;;;11.55;65.15
49040;BME280;36811;49.732;13.402;2022-11-12T14:41:23;99312.97;;;11.35;65.21
49040;BME280;36811;49.732;13.402;2022-11-12T14:43:53;99311.16;;;11.29;65.86
49040;BME280;36811;49.732;13.402;2022-11-12T14:51:20;99311.91;;;11.00;66.37
49040;BME280;36811;49.732;13.402;2022-11-12T14:53:55;99312.56;;;10.95;66.22
49040;BME280;36811;49.732;13.402;2022-11-12T14:56:44;99312.41;;;10.90;66.52
49040;BME280;36811;49.732;13.402;2022-11-12T14:59:15;99319.13;;;10.74;66.60
49040;BME280;36811;49.732;13.402;2022-11-12T15:02:22;99314.25;;;10.47;66.91
49040;BME280;36811;49.732;13.402;2022-11-12T15:05:10;99312.53;;;10.28;68.11
49040;BME280;36811;49.732;13.402;2022-11-12T15:07:51;99317.09;;;10.20;68.13
49040;BME280;36811;49.732;13.402;2022-11-12T15:10:37;99321.22;;;10.16;68.57
49040;BME280;36811;49.732;13.402;2022-11-12T15:13:13;99314.69;;;10.12;68.87
49040;BME280;36811;49.732;13.402;2022-11-12T15:18:20;99307.41;;;9.95;69.04